Impacts METAR Board INFO
IDs:

KCLT - Charlotte/Douglas In, NC, US

Updated at: 2216 UTC 18 Dec 2017
Potential Impact None Slight Moderate High
Time18/10Z 18/11Z 18/12Z 18/13Z 18/14Z 18/15Z 18/16Z 18/17Z 18/18Z 18/19Z 18/20Z 18/21Z 18/22Z
VIS10 10 10 10 10 10 10 10 10 10 10 10 10
CIG21 23 250 250 250 250 250 230 220 110 110 200 --
CoverOVCBKNBKNBKNBKNBKNBKNBKNBKNBKNBKNBKNSCT
FltCatMVFRMVFRVFRVFRVFRVFRVFRVFRVFRVFRVFRVFRVFR
WX--------------------------
WDir21020002803000230210240230250290200
WSpd3 3 0 3 3 4 6 6 7 7 5 5 4
WGst-- -- -- -- -- -- -- -- -- -- -- -- --
Raw hourly METARs
KCLT 180952Z 21003KT 10SM OVC021 09/04 A3015 RMK AO2 SLP210 T00890044
KCLT 181052Z 20003KT 10SM BKN023 07/04 A3015 RMK AO2 SLP210 T00720039
KCLT 181152Z 00000KT 10SM SCT021 BKN250 06/04 A3016 RMK AO2 SLP213 T00610039 10100 20061 53000
KCLT 181252Z 28003KT 10SM SCT019 BKN250 07/04 A3018 RMK AO2 SLP218 T00720044
KCLT 181352Z 30003KT 10SM FEW010 FEW019 BKN250 11/05 A3018 RMK AO2 SLP218 T01060050
KCLT 181452Z VRB04KT 10SM FEW010 FEW200 BKN250 12/07 A3018 RMK AO2 SLP217 T01220072 51005
KCLT 181552Z 23006KT 10SM FEW013 FEW150 BKN250 13/07 A3017 RMK AO2 SLP216 T01330067
KCLT 181652Z 21006KT 10SM FEW150 BKN230 15/07 A3015 RMK AO2 SLP206 T01500072
KCLT 181752Z 24007KT 10SM SCT120 BKN220 17/09 A3011 RMK AO2 SLP192 T01670089 10167 20061 58023
KCLT 181852Z 23007KT 10SM BKN110 BKN220 16/09 A3008 RMK AO2 SLP184 T01610089
KCLT 181952Z 25005KT 10SM BKN110 BKN200 17/09 A3009 RMK AO2 SLP187 T01670089
KCLT 182052Z 29005KT 10SM SCT110 BKN200 16/09 A3010 RMK AO2 SLP189 T01610094 55003
KCLT 182152Z 20004KT 10SM FEW150 SCT250 14/09 A3008 RMK AO2 SLP186 T01440089